Time;durP1;ratioP1;P1;durP2;ratioP2;P2;SDS_P1;SDS_P2;PMS_P1;PMS_P2;Temp;Humidity;BMP_temperature;BMP_pressure;BME280_temperature;BME280_humidity;BME280_pressure;Samples;Min_cycle;Max_cycle;Signal;HPM_P1;HPM_P2
2024/03/25 00:00:15;;;;;;;4.70;1.77;;;;;;;4.95;74.03;97855.44;4936012;28;105990;-69
2024/03/25 00:02:42;;;;;;;7.28;1.73;;;;;;;4.82;73.63;97856.69;4967548;28;103413;-69
2024/03/25 00:05:11;;;;;;;6.85;1.60;;;;;;;4.99;73.67;97862.03;4939392;28;102806;-69
2024/03/25 00:07:38;;;;;;;5.63;1.45;;;;;;;4.92;73.98;97861.00;4980776;28;103291;-69
2024/03/25 00:10:06;;;;;;;3.67;1.17;;;;;;;5.05;73.78;97856.16;4954683;28;103178;-69
2024/03/25 00:12:32;;;;;;;3.85;1.55;;;;;;;5.02;73.20;97851.25;4954226;28;102936;-70
2024/03/25 00:15:01;;;;;;;4.15;1.73;;;;;;;4.91;73.88;97854.09;4969781;28;103568;-69
2024/03/25 00:17:31;;;;;;;6.07;1.65;;;;;;;4.84;74.05;97853.09;4983651;28;111064;-70
2024/03/25 00:19:57;;;;;;;4.25;1.48;;;;;;;4.94;74.07;97848.56;4956263;28;103570;-69
2024/03/25 00:22:25;;;;;;;5.70;1.67;;;;;;;4.96;73.43;97851.84;4971094;27;102726;-69
2024/03/25 00:24:53;;;;;;;7.07;1.63;;;;;;;4.93;73.56;97852.16;4966151;27;103352;-69
2024/03/25 00:27:19;;;;;;;7.18;1.80;;;;;;;4.84;73.81;97847.84;4964458;28;103431;-70
2024/03/25 00:29:45;;;;;;;5.10;1.50;;;;;;;4.90;73.80;97847.19;4966047;28;106427;-70
2024/03/25 00:32:10;;;;;;;4.65;1.80;;;;;;;4.74;73.64;97848.75;4974887;28;102731;-69
2024/03/25 00:34:39;;;;;;;8.02;2.20;;;;;;;4.76;73.93;97846.78;4960349;28;103170;-69
2024/03/25 00:37:07;;;;;;;8.65;2.10;;;;;;;4.88;73.23;97844.72;4939255;28;105499;-69
2024/03/25 00:39:34;;;;;;;4.55;1.95;;;;;;;4.82;73.87;97840.09;4987778;28;105530;-69
2024/03/25 00:42:00;;;;;;;5.95;1.45;;;;;;;4.87;73.39;97847.53;5000887;27;102809;-69
2024/03/25 00:44:26;;;;;;;6.18;1.77;;;;;;;4.95;73.38;97840.53;4990995;28;103223;-69
2024/03/25 00:46:52;;;;;;;9.65;2.05;;;;;;;4.73;73.68;97843.63;4971567;28;103916;-70
2024/03/25 00:49:17;;;;;;;8.65;1.80;;;;;;;4.67;73.62;97852.94;4951147;28;103490;-69
2024/03/25 00:51:46;;;;;;;10.27;2.30;;;;;;;4.80;73.46;97848.13;4954152;28;102712;-69
2024/03/25 00:54:12;;;;;;;4.72;1.58;;;;;;;4.79;73.24;97849.13;4967225;27;103185;-69
2024/03/25 00:56:38;;;;;;;6.22;1.92;;;;;;;4.74;73.37;97853.16;4973406;28;103817;-69
2024/03/25 00:59:06;;;;;;;4.65;1.63;;;;;;;4.80;73.12;97850.75;4956508;28;104574;-70
2024/03/25 01:01:35;;;;;;;4.55;1.60;;;;;;;4.90;73.08;97848.03;4969458;28;102828;-70
2024/03/25 01:04:01;;;;;;;2.45;1.45;;;;;;;4.86;73.18;97853.72;4966338;28;103172;-69
2024/03/25 01:06:29;;;;;;;6.22;1.75;;;;;;;4.82;73.62;97847.97;4969753;28;103438;-69
2024/03/25 01:08:57;;;;;;;5.88;1.88;;;;;;;4.65;74.29;97847.00;4938170;28;105226;-70
2024/03/25 01:11:23;;;;;;;6.13;1.58;;;;;;;4.59;74.45;97837.13;4954820;28;103152;-69
2024/03/25 01:13:49;;;;;;;5.68;2.08;;;;;;;4.51;74.24;97832.66;4968830;28;102811;-70
2024/03/25 01:16:15;;;;;;;10.02;3.83;;;;;;;4.39;74.72;97839.91;4974575;27;108001;-68
2024/03/25 01:18:41;;;;;;;4.65;1.65;;;;;;;4.45;74.80;97828.00;4970527;28;104875;-69
2024/03/25 01:21:06;;;;;;;5.57;2.00;;;;;;;4.57;74.55;97831.22;4968638;28;102893;-69
2024/03/25 01:23:32;;;;;;;7.43;1.85;;;;;;;4.55;74.13;97828.75;4968522;28;102925;-70
2024/03/25 01:25:58;;;;;;;3.72;1.70;;;;;;;4.41;74.51;97831.91;4972105;28;103125;-69
2024/03/25 01:28:24;;;;;;;5.88;2.10;;;;;;;4.43;74.37;97830.78;4955783;28;103086;-70
2024/03/25 01:30:49;;;;;;;5.80;1.77;;;;;;;4.40;74.79;97825.84;4971716;28;104315;-69
2024/03/25 01:33:15;;;;;;;5.93;2.00;;;;;;;4.37;74.62;97826.13;4952827;28;102708;-69
2024/03/25 01:35:41;;;;;;;6.55;2.05;;;;;;;4.42;74.14;97816.00;4990284;27;103721;-69
2024/03/25 01:38:07;;;;;;;7.15;1.90;;;;;;;4.40;74.43;97825.84;4945591;27;103188;-69
2024/03/25 01:40:35;;;;;;;4.78;1.70;;;;;;;4.51;74.11;97831.81;4966362;28;103420;-69
2024/03/25 01:43:03;;;;;;;8.18;2.00;;;;;;;4.51;74.11;97826.56;4953428;28;102834;-69
2024/03/25 01:45:34;;;;;;;7.95;2.08;;;;;;;4.52;73.80;97828.22;4973272;28;103216;-69
2024/03/25 01:48:04;;;;;;;5.78;1.95;;;;;;;4.50;73.95;97835.44;4968901;28;103408;-69
2024/03/25 01:50:34;;;;;;;5.22;1.85;;;;;;;4.53;74.12;97840.34;4950670;28;102827;-69
2024/03/25 01:52:59;;;;;;;8.75;1.98;;;;;;;4.43;73.68;97828.16;4955294;28;102924;-69
2024/03/25 01:55:30;;;;;;;3.42;1.63;;;;;;;4.53;73.88;97840.34;4953703;28;103762;-70
2024/03/25 01:57:56;;;;;;;5.68;1.42;;;;;;;4.61;73.59;97845.66;4969488;28;103333;-70
2024/03/25 02:00:26;;;;;;;5.10;1.90;;;;;;;4.50;74.07;97835.44;4988493;27;103190;-69
2024/03/25 02:02:52;;;;;;;5.03;1.73;;;;;;;4.60;74.27;97842.22;4959607;28;103222;-69
2024/03/25 02:05:27;;;;;;;7.63;1.80;;;;;;;4.60;73.63;97836.97;4945895;28;103765;-69
2024/03/25 02:07:53;;;;;;;6.53;1.90;;;;;;;4.66;73.57;97838.16;4950942;28;103255;-69
2024/03/25 02:10:20;;;;;;;7.93;2.20;;;;;;;4.53;74.17;97841.16;4955039;28;102929;-70
2024/03/25 02:12:49;;;;;;;6.75;1.90;;;;;;;4.69;74.05;97842.28;4953933;28;102950;-69
2024/03/25 02:15:15;;;;;;;6.32;2.10;;;;;;;4.43;74.63;97830.78;4963404;28;103733;-69
2024/03/25 02:17:43;;;;;;;4.43;1.75;;;;;;;4.62;74.42;97839.44;4970236;28;103200;-68
2024/03/25 02:20:10;;;;;;;7.85;1.70;;;;;;;4.61;74.20;97827.31;4969741;28;102932;-69
2024/03/25 02:22:36;;;;;;;7.07;1.95;;;;;;;4.50;74.66;97831.00;4955350;28;103096;-70
2024/03/25 02:25:06;;;;;;;6.45;1.83;;;;;;;4.62;74.48;97828.97;4981863;28;104974;-69
2024/03/25 02:27:33;;;;;;;4.65;1.65;;;;;;;4.67;74.23;97826.72;4967891;28;103145;-70
2024/03/25 02:30:04;;;;;;;7.47;2.10;;;;;;;4.63;74.66;97833.25;4951736;28;103110;-70
2024/03/25 02:32:29;;;;;;;3.65;1.85;;;;;;;4.61;74.94;97833.41;4982613;28;102931;-69
2024/03/25 02:34:56;;;;;;;4.85;1.70;;;;;;;4.64;74.76;97837.50;4970514;28;105359;-69
2024/03/25 02:37:24;;;;;;;3.97;1.60;;;;;;;4.67;74.57;97834.56;4967930;28;105790;-69
2024/03/25 02:39:51;;;;;;;8.18;2.28;;;;;;;4.66;74.14;97835.53;4949289;28;102826;-69
2024/03/25 02:42:17;;;;;;;10.60;2.67;;;;;;;4.51;74.91;97837.03;4960730;27;102839;-69
2024/03/25 02:44:43;;;;;;;8.15;2.15;;;;;;;4.58;74.55;97830.25;4950785;28;103725;-69
2024/03/25 02:47:09;;;;;;;6.72;1.98;;;;;;;4.70;74.55;97834.25;4964478;28;103280;-69
2024/03/25 02:49:35;;;;;;;4.13;1.73;;;;;;;4.77;74.00;97832.69;4953185;28;102813;-69
2024/03/25 02:52:01;;;;;;;4.63;1.88;;;;;;;4.82;74.09;97838.31;4963944;28;103048;-69
2024/03/25 02:54:27;;;;;;;6.53;1.80;;;;;;;4.72;73.49;97834.94;4940272;28;105984;-69
2024/03/25 02:56:56;;;;;;;5.43;1.85;;;;;;;4.74;74.06;97830.38;4957310;28;105272;-69
2024/03/25 02:59:23;;;;;;;5.60;1.73;;;;;;;4.57;74.10;97831.22;4963665;28;102847;-69
2024/03/25 03:01:49;;;;;;;7.05;1.73;;;;;;;4.71;73.81;97828.03;4966971;28;102931;-68
2024/03/25 03:04:17;;;;;;;7.18;2.08;;;;;;;4.68;73.87;97827.53;4965879;28;103278;-68
2024/03/25 03:06:43;;;;;;;6.68;1.45;;;;;;;4.69;74.08;97823.94;4951338;28;103784;-68
2024/03/25 03:09:11;;;;;;;6.80;1.90;;;;;;;4.64;74.35;97821.78;4961878;28;104326;-69
2024/03/25 03:11:37;;;;;;;6.47;2.08;;;;;;;4.66;74.52;97827.69;4951558;28;102878;-68
2024/03/25 03:14:04;;;;;;;4.93;1.55;;;;;;;4.75;74.30;97818.88;4968617;28;105517;-69
2024/03/25 03:16:29;;;;;;;4.78;1.58;;;;;;;4.74;74.26;97819.91;4969147;28;103211;-69
2024/03/25 03:18:56;;;;;;;3.42;1.45;;;;;;;4.74;74.32;97826.91;4949571;28;104494;-69
2024/03/25 03:21:25;;;;;;;4.18;1.70;;;;;;;4.82;73.65;97824.34;4948621;28;103226;-69
2024/03/25 03:23:51;;;;;;;4.80;1.60;;;;;;;4.76;74.07;97817.91;4938636;28;104210;-69
2024/03/25 03:26:17;;;;;;;4.88;1.67;;;;;;;4.76;73.93;97815.28;4953474;28;103289;-69
2024/03/25 03:28:43;;;;;;;5.15;1.58;;;;;;;4.72;74.29;97808.72;4968730;28;103095;-68
2024/03/25 03:31:08;;;;;;;8.00;2.35;;;;;;;4.56;75.05;97805.94;4981767;27;106792;-69
2024/03/25 03:33:34;;;;;;;5.70;2.40;;;;;;;4.65;75.08;97807.66;4955497;28;104612;-69
2024/03/25 03:36:02;;;;;;;4.68;2.03;;;;;;;4.50;75.50;97807.38;4965743;28;106350;-69
2024/03/25 03:38:28;;;;;;;5.60;1.77;;;;;;;4.56;75.11;97798.94;4959350;28;103957;-69
2024/03/25 03:41:03;;;;;;;6.05;1.90;;;;;;;4.56;74.94;97803.34;4967230;28;103024;-69
2024/03/25 03:43:29;;;;;;;4.88;1.80;;;;;;;4.53;75.33;97798.41;4954714;28;109803;-69
2024/03/25 03:45:59;;;;;;;8.75;2.10;;;;;;;4.48;75.38;97807.56;4928499;28;105288;-69
2024/03/25 03:48:25;;;;;;;4.82;1.50;;;;;;;4.55;75.34;97813.00;4937182;28;103584;-68
2024/03/25 03:50:51;;;;;;;4.13;2.15;;;;;;;4.47;75.09;97810.31;4964005;28;103221;-69
2024/03/25 03:53:19;;;;;;;6.97;2.50;;;;;;;4.35;75.46;97812.34;4941507;27;105892;-69
2024/03/25 03:55:59;;;;;;;5.03;2.00;;;;;;;4.37;76.14;97810.38;4956104;28;103137;-68
2024/03/25 03:58:25;;;;;;;8.77;2.10;;;;;;;4.32;75.77;97808.25;4971369;28;104214;-69
2024/03/25 04:00:52;;;;;;;6.70;2.33;;;;;;;4.41;75.32;97816.97;4971096;28;103110;-69
2024/03/25 04:03:18;;;;;;;8.50;2.35;;;;;;;4.47;75.71;97815.56;4966257;28;103281;-68
2024/03/25 04:05:44;;;;;;;6.88;2.25;;;;;;;4.45;75.38;97818.34;4969456;28;103957;-69
2024/03/25 04:08:09;;;;;;;6.18;2.33;;;;;;;4.40;75.81;97820.59;4964665;28;102798;-68
2024/03/25 04:10:36;;;;;;;9.02;2.58;;;;;;;4.35;75.56;97817.59;4952856;28;103177;-68
2024/03/25 04:13:05;;;;;;;8.75;3.78;;;;;;;4.43;75.23;97830.78;4908781;28;110128;-68
2024/03/25 04:15:35;;;;;;;6.68;2.13;;;;;;;4.38;74.93;97826.97;4964059;28;105735;-69
2024/03/25 04:18:01;;;;;;;7.70;2.38;;;;;;;4.41;74.93;97822.22;4948887;28;103026;-69
2024/03/25 04:20:30;;;;;;;5.70;2.63;;;;;;;4.56;75.14;97829.56;4958022;28;103526;-69
2024/03/25 04:22:56;;;;;;;10.68;2.53;;;;;;;4.56;74.49;97827.78;4961964;28;103322;-68
2024/03/25 04:25:22;;;;;;;6.53;2.58;;;;;;;4.59;74.44;97824.03;4983764;27;103214;-69
2024/03/25 04:27:48;;;;;;;8.73;2.67;;;;;;;4.55;74.69;97830.56;4963662;28;102668;-69
2024/03/25 04:30:17;;;;;;;8.25;2.33;;;;;;;4.50;74.92;97822.31;4959793;28;102790;-69
2024/03/25 04:32:42;;;;;;;6.45;2.25;;;;;;;4.53;74.64;97817.56;4964465;27;104381;-69
2024/03/25 04:35:08;;;;;;;7.15;2.35;;;;;;;4.41;75.15;97827.47;4970191;28;103639;-69
2024/03/25 04:37:35;;;;;;;6.75;2.05;;;;;;;4.40;75.35;97819.75;4948775;28;102803;-68
2024/03/25 04:40:02;;;;;;;4.53;1.88;;;;;;;4.47;74.76;97813.75;4980519;28;102819;-69
2024/03/25 04:42:28;;;;;;;9.63;2.47;;;;;;;4.39;75.31;97818.94;4965328;28;103221;-69
2024/03/25 04:44:59;;;;;;;7.07;2.65;;;;;;;4.42;75.18;97802.91;4968135;28;103180;-70
2024/03/25 04:47:24;;;;;;;5.68;2.20;;;;;;;4.43;74.95;97807.19;4952248;28;103231;-70
2024/03/25 04:49:51;;;;;;;8.70;2.40;;;;;;;4.36;75.18;97805.31;4951952;28;103354;-70
2024/03/25 04:52:23;;;;;;;5.45;1.98;;;;;;;4.36;75.04;97813.97;4966744;28;105374;-69
2024/03/25 04:54:49;;;;;;;7.45;1.90;;;;;;;4.36;75.01;97813.97;4978871;27;103564;-69
2024/03/25 04:57:15;;;;;;;7.00;2.60;;;;;;;4.28;74.88;97816.53;4957184;28;102809;-69
2024/03/25 04:59:43;;;;;;;7.88;2.80;;;;;;;4.36;74.63;97821.84;4955069;28;104078;-68
2024/03/25 05:02:10;;;;;;;9.20;2.40;;;;;;;4.37;74.52;97820.88;4999398;27;103068;-69
2024/03/25 05:04:35;;;;;;;5.45;2.20;;;;;;;4.30;74.51;97822.47;4954152;28;105481;-68
2024/03/25 05:07:01;;;;;;;7.05;2.33;;;;;;;4.08;75.24;97815.88;4966862;28;102707;-69
2024/03/25 05:09:30;;;;;;;9.05;2.78;;;;;;;4.07;75.53;97812.41;4967631;28;102963;-70
2024/03/25 05:11:56;;;;;;;6.63;2.30;;;;;;;4.12;75.64;97814.59;4953741;28;106420;-69
2024/03/25 05:14:22;;;;;;;8.48;2.00;;;;;;;4.18;74.92;97813.16;4954633;28;104448;-70
2024/03/25 05:16:51;;;;;;;7.63;2.58;;;;;;;4.09;74.73;97828.00;4960882;28;102740;-70
2024/03/25 05:19:18;;;;;;;11.63;2.13;;;;;;;4.08;74.44;97836.84;4965169;28;104256;-69
2024/03/25 05:21:46;;;;;;;5.25;2.20;;;;;;;4.12;74.78;97838.19;4968859;28;103319;-71
2024/03/25 05:24:15;;;;;;;6.57;2.05;;;;;;;4.05;74.47;97835.31;4971450;27;103294;-69
2024/03/25 05:26:41;;;;;;;4.68;2.00;;;;;;;4.05;74.87;97837.09;4967144;28;103181;-69
2024/03/25 05:29:08;;;;;;;5.45;1.92;;;;;;;4.01;75.43;97835.75;4955045;28;103136;-69
2024/03/25 05:31:36;;;;;;;5.95;1.90;;;;;;;4.00;75.17;97840.19;4971474;27;103925;-70
2024/03/25 05:34:08;;;;;;;6.28;2.20;;;;;;;3.98;75.11;97847.34;4971796;27;104974;-69
2024/03/25 05:36:34;;;;;;;7.07;2.38;;;;;;;3.65;75.23;97846.97;4973716;28;102832;-70
2024/03/25 05:38:59;;;;;;;4.55;1.73;;;;;;;3.77;76.13;97853.69;4951610;27;103201;-70
2024/03/25 05:41:25;;;;;;;4.47;2.13;;;;;;;3.83;75.96;97848.84;4952846;28;104434;-71
2024/03/25 05:43:51;;;;;;;5.40;2.53;;;;;;;3.75;75.96;97847.75;4966298;28;106480;-70
2024/03/25 05:46:17;;;;;;;6.43;2.60;;;;;;;3.76;75.90;97849.41;4952641;28;102805;-71
2024/03/25 05:48:45;;;;;;;5.95;2.45;;;;;;;3.76;75.63;97841.56;4952516;28;103137;-70
2024/03/25 05:51:14;;;;;;;5.10;2.25;;;;;;;3.78;75.29;97851.88;4940479;28;103833;-70
2024/03/25 05:53:42;;;;;;;7.95;2.35;;;;;;;3.83;75.10;97854.09;4969369;28;103163;-70
2024/03/25 05:56:11;;;;;;;8.68;2.80;;;;;;;3.88;75.65;97851.81;4956054;28;102883;-70
2024/03/25 05:58:40;;;;;;;4.40;2.15;;;;;;;3.95;75.69;97852.91;4956010;28;103650;-71
2024/03/25 06:01:07;;;;;;;7.22;2.20;;;;;;;3.98;75.78;97849.97;4953325;28;107324;-70
2024/03/25 06:03:32;;;;;;;6.10;2.30;;;;;;;3.99;75.67;97851.63;4958210;28;103897;-73
2024/03/25 06:05:58;;;;;;;7.03;2.55;;;;;;;3.99;75.45;97854.25;4954669;28;102894;-70
2024/03/25 06:08:24;;;;;;;9.25;2.08;;;;;;;3.92;75.76;97848.78;4943461;27;102825;-70
2024/03/25 06:10:53;;;;;;;7.55;2.70;;;;;;;3.88;76.35;97850.03;4967229;28;103780;-70
2024/03/25 06:13:19;;;;;;;9.18;3.03;;;;;;;3.88;76.67;97854.44;4930125;28;106219;-70
2024/03/25 06:15:48;;;;;;;4.82;2.33;;;;;;;3.94;76.47;97848.63;4969059;28;102704;-70
2024/03/25 06:18:13;;;;;;;8.70;2.60;;;;;;;3.94;76.59;97851.25;4951914;28;104420;-71
2024/03/25 06:20:39;;;;;;;9.70;2.80;;;;;;;3.94;76.81;97846.84;4948531;27;105445;-70
2024/03/25 06:23:06;;;;;;;8.95;3.33;;;;;;;3.75;77.34;97853.00;4951696;28;106482;-70
2024/03/25 06:25:33;;;;;;;12.13;3.15;;;;;;;3.78;77.28;97850.09;4955440;28;103686;-71
2024/03/25 06:27:59;;;;;;;8.23;3.50;;;;;;;3.67;77.89;97855.53;4955943;28;102794;-71
2024/03/25 06:35:53;;;;;;;6.88;3.30;;;;;;;3.72;77.99;97852.47;4953432;28;103234;-70
2024/03/25 06:38:20;;;;;;;8.18;3.53;;;;;;;3.69;77.61;97853.56;4982811;27;103065;-70
2024/03/25 06:40:46;;;;;;;8.18;3.30;;;;;;;3.78;77.32;97852.69;4957386;28;103225;-72
2024/03/25 06:43:12;;;;;;;9.82;3.42;;;;;;;4.05;77.44;97864.16;4981954;28;104383;-71
2024/03/25 06:45:40;;;;;;;6.38;3.10;;;;;;;4.51;76.25;97858.03;4948693;28;103000;-72
2024/03/25 06:48:09;;;;;;;8.60;3.35;;;;;;;4.65;75.81;97860.13;4969623;28;104461;-72
2024/03/25 06:50:36;;;;;;;8.68;2.80;;;;;;;4.81;74.38;97859.47;4968622;28;103342;-71
2024/03/25 06:53:02;;;;;;;9.57;3.30;;;;;;;4.92;74.25;97863.63;4969085;27;103804;-72
2024/03/25 06:55:30;;;;;;;7.32;2.53;;;;;;;5.00;73.54;97860.25;4955099;28;104101;-69
2024/03/25 06:57:56;;;;;;;9.90;2.75;;;;;;;5.10;73.54;97863.59;4956198;28;104960;-71
2024/03/25 07:00:22;;;;;;;12.05;3.08;;;;;;;5.15;72.36;97867.41;4963451;27;105109;-70
2024/03/25 07:02:48;;;;;;;5.82;2.78;;;;;;;5.23;72.74;97860.56;4962451;27;103368;-70
2024/03/25 07:05:14;;;;;;;6.95;2.90;;;;;;;5.50;72.09;97874.50;4959762;27;103912;-70
2024/03/25 07:07:39;;;;;;;12.35;3.63;;;;;;;5.59;71.35;97870.94;4986134;27;104008;-70
2024/03/25 07:10:08;;;;;;;10.18;3.35;;;;;;;5.63;70.61;97874.88;4953357;28;104763;-69
2024/03/25 07:12:36;;;;;;;11.05;3.03;;;;;;;5.73;70.53;97880.03;4970713;28;103326;-69
2024/03/25 07:15:02;;;;;;;8.07;2.83;;;;;;;5.71;69.48;97879.34;4976141;27;102784;-69
2024/03/25 07:17:30;;;;;;;12.43;2.90;;;;;;;5.96;69.32;97875.03;4986351;28;102908;-73
2024/03/25 07:19:56;;;;;;;11.48;2.67;;;;;;;6.16;68.64;97874.78;4962599;28;103351;-74
2024/03/25 07:22:22;;;;;;;11.27;2.83;;;;;;;6.55;68.38;97874.22;4962590;27;103414;-73
2024/03/25 07:24:47;;;;;;;6.85;2.72;;;;;;;6.49;67.31;97874.88;4972845;27;103037;-73
2024/03/25 07:27:16;;;;;;;10.32;2.65;;;;;;;6.77;67.43;97868.31;4950413;28;102736;-74
2024/03/25 07:29:42;;;;;;;13.15;3.03;;;;;;;6.89;66.71;97875.88;4969520;28;103319;-73
2024/03/25 07:32:08;;;;;;;10.45;2.78;;;;;;;7.10;67.01;97863.03;4964873;28;103427;-73
2024/03/25 07:34:38;;;;;;;9.80;2.90;;;;;;;7.09;64.77;97850.84;4962738;28;103053;-72
2024/03/25 07:37:04;;;;;;;8.05;2.47;;;;;;;7.52;64.63;97861.16;4974518;27;103107;-69
2024/03/25 07:39:29;;;;;;;11.77;2.55;;;;;;;7.59;64.50;97856.03;4964880;28;105379;-69
2024/03/25 07:41:59;;;;;;;10.68;2.80;;;;;;;7.56;63.43;97853.72;4938445;28;103765;-69
2024/03/25 07:44:25;;;;;;;7.75;2.40;;;;;;;7.91;64.78;97854.25;4960037;28;102760;-69
2024/03/25 07:46:50;;;;;;;10.55;2.95;;;;;;;8.17;62.24;97848.66;4951446;28;102713;-68
2024/03/25 07:49:19;;;;;;;9.95;2.65;;;;;;;8.38;61.20;97845.41;4972245;28;103404;-68
2024/03/25 07:51:48;;;;;;;11.02;2.42;;;;;;;8.28;60.36;97845.66;4970072;28;103533;-69
2024/03/25 07:54:16;;;;;;;7.85;2.50;;;;;;;8.51;60.12;97849.31;4937162;28;102977;-68
2024/03/25 07:56:42;;;;;;;8.63;2.72;;;;;;;8.55;60.61;97843.50;4966498;28;102847;-68
2024/03/25 07:59:10;;;;;;;7.28;3.10;;;;;;;9.30;58.62;97851.59;4958910;28;105300;-68
2024/03/25 08:01:36;;;;;;;8.75;2.80;;;;;;;9.23;53.86;97853.34;4975994;28;103174;-68
2024/03/25 08:04:02;;;;;;;6.95;1.90;;;;;;;9.05;53.30;97857.16;4972903;28;102703;-68
2024/03/25 08:06:31;;;;;;;8.88;1.90;;;;;;;8.40;58.78;97861.91;4963335;28;103732;-68
2024/03/25 08:08:59;;;;;;;10.77;2.70;;;;;;;9.31;58.09;97863.81;4989826;28;103430;-68
2024/03/25 08:11:26;;;;;;;10.82;2.08;;;;;;;10.15;54.37;97861.88;4994695;28;105193;-68
2024/03/25 08:13:55;;;;;;;9.80;2.20;;;;;;;10.11;54.03;97859.63;4982343;28;102784;-70
2024/03/25 08:16:23;;;;;;;7.47;1.92;;;;;;;10.47;52.05;97859.81;5004502;28;102765;-70
2024/03/25 08:18:52;;;;;;;8.68;2.42;;;;;;;9.39;52.87;97852.34;4982172;28;103800;-67
2024/03/25 08:21:17;;;;;;;8.25;2.65;;;;;;;8.14;54.27;97863.03;4977008;28;103101;-67
2024/03/25 08:23:47;;;;;;;6.32;1.98;;;;;;;9.84;54.86;97852.34;4996360;28;102765;-69
2024/03/25 08:26:13;;;;;;;7.38;1.70;;;;;;;10.05;52.91;97847.13;5002902;27;103006;-69
2024/03/25 08:28:39;;;;;;;5.93;1.77;;;;;;;10.03;54.65;97843.84;4970642;28;103237;-70
2024/03/25 08:31:05;;;;;;;6.85;1.92;;;;;;;10.61;51.27;97843.88;4983690;28;106464;-69
2024/03/25 08:33:31;;;;;;;6.78;2.03;;;;;;;11.80;48.95;97837.97;4960417;28;102857;-69
2024/03/25 08:35:59;;;;;;;7.43;1.60;;;;;;;11.39;48.49;97837.75;4972107;28;102820;-69
2024/03/25 08:38:25;;;;;;;4.95;1.95;;;;;;;11.05;53.21;97831.41;4967534;28;103883;-68
2024/03/25 08:40:51;;;;;;;11.07;2.00;;;;;;;10.90;47.55;97833.31;4952072;28;105043;-70
2024/03/25 08:43:17;;;;;;;7.28;2.17;;;;;;;9.42;47.72;97842.25;4971803;28;102871;-69
2024/03/25 08:45:45;;;;;;;7.03;1.70;;;;;;;8.87;49.82;97838.16;4942729;28;103029;-69
2024/03/25 08:48:11;;;;;;;5.95;1.25;;;;;;;8.93;51.36;97829.53;4965554;27;103218;-77
2024/03/25 08:50:37;;;;;;;6.95;1.98;;;;;;;8.52;51.88;97829.88;4960709;28;105191;-77
2024/03/25 08:53:05;;;;;;;6.65;1.50;;;;;;;9.21;53.32;97829.75;4941641;28;102845;-72
2024/03/25 08:55:33;;;;;;;4.90;1.55;;;;;;;10.40;47.85;97828.81;4957577;28;103114;-73
2024/03/25 08:57:59;;;;;;;3.38;1.48;;;;;;;9.25;48.80;97824.94;4958248;28;106087;-76
2024/03/25 09:00:27;;;;;;;4.10;1.48;;;;;;;9.28;49.84;97822.72;4971257;28;103138;-76
2024/03/25 09:02:56;;;;;;;7.38;1.75;;;;;;;9.63;49.95;97822.19;4974365;28;102788;-78
2024/03/25 09:05:22;;;;;;;6.90;1.65;;;;;;;10.61;47.72;97813.91;4975300;28;102748;-74
2024/03/25 09:07:52;;;;;;;5.68;2.00;;;;;;;10.35;46.59;97812.69;4955620;27;103330;-75
2024/03/25 09:13:03;;;;;;;2.92;1.40;;;;;;;11.23;43.11;97798.31;4969206;28;103069;-79
2024/03/25 09:15:31;;;;;;;6.53;1.90;;;;;;;11.74;47.29;97807.75;4981294;28;102907;-78
2024/03/25 09:17:57;;;;;;;6.07;1.27;;;;;;;12.13;45.63;97800.16;4988973;28;106055;-75
2024/03/25 09:20:26;;;;;;;6.28;1.85;;;;;;;12.54;42.40;97786.75;4935040;28;107321;-74
2024/03/25 09:22:52;;;;;;;6.93;1.58;;;;;;;12.45;45.91;97785.31;4958519;28;103005;-76
2024/03/25 09:25:18;;;;;;;5.25;1.52;;;;;;;10.91;44.04;97792.56;4967190;28;102867;-75
2024/03/25 09:27:48;;;;;;;9.73;2.15;;;;;;;11.58;46.10;97801.75;4972411;27;103259;-75
2024/03/25 09:30:14;;;;;;;10.70;1.95;;;;;;;11.91;44.64;97787.81;4944095;28;104522;-76
2024/03/25 09:32:43;;;;;;;4.72;1.50;;;;;;;12.46;45.09;97783.47;4978134;28;103424;-79
2024/03/25 09:35:09;;;;;;;6.55;1.40;;;;;;;10.86;44.76;97784.38;4990742;28;102792;-74
2024/03/25 09:37:36;;;;;;;5.85;1.50;;;;;;;11.98;43.07;97779.91;4982900;28;103202;-73
2024/03/25 09:40:04;;;;;;;7.32;1.65;;;;;;;12.95;44.89;97771.63;4976085;28;104631;-72
2024/03/25 09:42:40;;;;;;;5.90;1.65;;;;;;;11.70;43.05;97770.19;4966144;28;103300;-72
2024/03/25 09:45:08;;;;;;;6.22;1.40;;;;;;;12.82;43.87;97766.31;4970021;28;103204;-74
2024/03/25 09:47:34;;;;;;;5.28;1.40;;;;;;;12.50;41.60;97764.28;4963774;27;106175;-72
2024/03/25 09:50:04;;;;;;;6.45;1.85;;;;;;;10.64;43.24;97762.41;4979115;28;103409;-72
2024/03/25 09:52:32;;;;;;;5.43;2.15;;;;;;;11.26;44.49;97763.44;4971193;28;103166;-73
2024/03/25 09:54:58;;;;;;;5.13;1.70;;;;;;;12.63;45.05;97752.84;4971049;28;102950;-73
2024/03/25 09:57:25;;;;;;;6.45;1.73;;;;;;;12.67;43.98;97756.72;4961330;28;102854;-72
2024/03/25 09:59:51;;;;;;;5.32;1.55;;;;;;;12.44;42.54;97749.16;4991244;27;103163;-72
2024/03/25 10:02:18;;;;;;;6.53;1.48;;;;;;;11.66;44.95;97746.91;4961341;28;103216;-73
2024/03/25 10:04:48;;;;;;;5.65;1.70;;;;;;;11.17;44.10;97749.53;4957072;28;102905;-73
2024/03/25 10:07:24;;;;;;;8.40;1.75;;;;;;;11.00;45.12;97741.06;4972075;28;103223;-73
2024/03/25 10:09:51;;;;;;;4.18;1.20;;;;;;;11.90;45.20;97738.41;4973301;28;104196;-74
2024/03/25 10:12:17;;;;;;;5.10;1.55;;;;;;;11.35;43.55;97734.97;4954278;28;102795;-73
2024/03/25 10:14:43;;;;;;;4.50;1.52;;;;;;;11.54;42.08;97728.94;4969752;28;102850;-73
2024/03/25 10:17:09;;;;;;;4.05;1.45;;;;;;;11.59;44.29;97725.66;4970296;28;103194;-74
2024/03/25 10:19:35;;;;;;;4.43;1.27;;;;;;;11.64;43.46;97711.81;4955072;28;103278;-74
2024/03/25 10:22:08;;;;;;;7.65;1.88;;;;;;;10.28;42.03;97719.94;4954651;28;102675;-72
2024/03/25 10:24:41;;;;;;;3.00;1.35;;;;;;;11.84;41.15;97701.25;4970950;28;102698;-74
2024/03/25 10:27:11;;;;;;;3.83;1.42;;;;;;;11.57;41.43;97701.19;4971995;28;103414;-74
2024/03/25 10:29:37;;;;;;;4.00;1.20;;;;;;;12.38;41.93;97692.38;4950631;27;106769;-74
2024/03/25 10:32:04;;;;;;;6.40;1.30;;;;;;;10.87;43.67;97690.66;4960201;28;103043;-74
2024/03/25 10:34:30;;;;;;;3.72;1.30;;;;;;;10.90;43.30;97687.59;4953450;28;102865;-74
2024/03/25 10:37:01;;;;;;;5.78;1.20;;;;;;;11.24;45.79;97685.94;4970382;28;103210;-74
2024/03/25 10:39:30;;;;;;;3.30;1.10;;;;;;;12.23;43.07;97683.78;4969758;28;106406;-74
2024/03/25 10:41:57;;;;;;;4.90;1.08;;;;;;;11.02;41.49;97691.38;4966945;28;102794;-74
2024/03/25 10:44:23;;;;;;;4.68;1.30;;;;;;;10.81;40.92;97683.47;4951144;28;102907;-74
2024/03/25 10:47:04;;;;;;;4.65;1.10;;;;;;;11.37;41.77;97679.88;4954256;28;103861;-75
2024/03/25 10:49:48;;;;;;;3.90;1.13;;;;;;;11.75;39.26;97677.56;4955800;28;106755;-74
2024/03/25 10:52:18;;;;;;;5.15;1.30;;;;;;;11.65;39.14;97671.03;4970045;28;102783;-74
2024/03/25 10:54:49;;;;;;;4.95;1.20;;;;;;;11.08;41.53;97671.19;4977389;28;102796;-74
2024/03/25 10:57:16;;;;;;;4.53;1.08;;;;;;;11.81;38.68;97675.13;4958019;27;103710;-74
2024/03/25 10:59:45;;;;;;;6.47;1.50;;;;;;;12.81;40.06;97669.03;4958509;28;105667;-74
2024/03/25 11:02:12;;;;;;;5.53;1.17;;;;;;;13.54;38.35;97673.31;4955792;28;102880;-75
2024/03/25 11:04:38;;;;;;;2.55;1.08;;;;;;;12.20;40.24;97665.63;4971652;28;103259;-74
2024/03/25 11:07:12;;;;;;;6.55;1.27;;;;;;;11.67;38.76;97661.84;4955458;28;105233;-75
2024/03/25 11:09:38;;;;;;;4.45;1.30;;;;;;;12.25;39.92;97655.22;4958541;28;106120;-73
2024/03/25 11:12:05;;;;;;;3.13;1.17;;;;;;;12.23;37.77;97654.59;4970866;28;102800;-72
2024/03/25 11:14:32;;;;;;;7.32;1.63;;;;;;;13.15;37.37;97659.13;4954664;28;103009;-74
2024/03/25 11:17:01;;;;;;;3.70;1.10;;;;;;;13.69;37.79;97643.75;4959806;28;104090;-75
2024/03/25 11:19:28;;;;;;;5.45;1.13;;;;;;;11.53;39.35;97642.44;4982986;28;107950;-74
2024/03/25 11:22:06;;;;;;;4.80;1.50;;;;;;;13.01;39.96;97634.41;4955961;28;102784;-75
2024/03/25 11:24:31;;;;;;;3.40;1.40;;;;;;;13.40;37.06;97625.50;4971745;28;102711;-75
2024/03/25 11:26:58;;;;;;;3.63;1.27;;;;;;;12.62;38.06;97629.00;4943486;28;103025;-75
2024/03/25 11:29:24;;;;;;;4.13;1.20;;;;;;;13.22;39.06;97628.03;4967997;28;103630;-74
2024/03/25 11:31:50;;;;;;;2.58;1.15;;;;;;;12.93;38.18;97623.00;4967585;27;103270;-73
2024/03/25 11:34:19;;;;;;;4.45;1.30;;;;;;;13.22;38.32;97628.03;4955645;28;102912;-75
2024/03/25 11:36:48;;;;;;;3.53;1.42;;;;;;;13.01;38.74;97616.66;4973960;28;103485;-75
2024/03/25 11:39:16;;;;;;;4.57;1.55;;;;;;;12.49;40.05;97616.56;4949817;28;105935;-74